createdAt,value
2018-07-10T00:02:11.377Z,12.00
2018-07-10T00:07:11.194Z,12.10
2018-07-10T00:09:50.367Z,12.10
2018-07-10T00:12:17.670Z,12.10
2018-07-10T00:14:44.956Z,12.10
2018-07-10T00:17:12.256Z,12.10
2018-07-10T00:19:39.560Z,12.20
2018-07-10T00:22:06.842Z,12.20
2018-07-10T00:24:34.089Z,12.20
2018-07-10T00:27:01.455Z,12.20
2018-07-10T00:29:28.717Z,12.10
2018-07-10T00:31:56.006Z,12.10
2018-07-10T00:34:23.417Z,12.00
2018-07-10T00:36:50.776Z,12.00
2018-07-10T00:39:18.215Z,12.00
2018-07-10T00:41:45.539Z,11.90
2018-07-10T00:44:12.893Z,12.00
2018-07-10T00:46:41.221Z,12.00
2018-07-10T00:49:08.785Z,12.00
2018-07-10T00:51:39.219Z,12.00
2018-07-10T00:54:06.568Z,12.10
2018-07-10T00:59:02.449Z,12.10
2018-07-10T01:01:29.760Z,12.10
2018-07-10T01:03:57.053Z,12.10
2018-07-10T01:06:24.272Z,12.10
2018-07-10T01:08:51.669Z,12.10
2018-07-10T01:11:19.898Z,12.10
2018-07-10T01:13:48.110Z,12.20
2018-07-10T01:16:20.089Z,12.20
2018-07-10T01:18:49.312Z,12.20
2018-07-10T01:21:18.768Z,12.20
2018-07-10T01:23:48.732Z,12.20
2018-07-10T01:26:16.000Z,12.20
2018-07-10T01:28:43.305Z,12.20
2018-07-10T01:31:10.741Z,12.20
2018-07-10T01:33:38.103Z,12.20
2018-07-10T01:36:06.634Z,12.10
2018-07-10T01:38:34.872Z,12.10
2018-07-10T01:43:29.628Z,12.10
2018-07-10T01:45:57.039Z,12.10
2018-07-10T01:48:24.453Z,12.10
2018-07-10T01:50:51.856Z,12.00
2018-07-10T01:53:19.405Z,12.00
2018-07-10T01:55:46.695Z,12.00
2018-07-10T01:58:14.038Z,11.90
2018-07-10T02:00:42.633Z,11.90
2018-07-10T02:03:10.470Z,11.80
2018-07-10T02:05:38.270Z,11.70
2018-07-10T02:08:05.981Z,11.70
2018-07-10T02:10:33.252Z,11.70
2018-07-10T02:13:00.556Z,11.70
2018-07-10T02:15:28.385Z,11.70
2018-07-10T02:17:55.747Z,11.80
2018-07-10T02:20:24.418Z,11.80
2018-07-10T02:22:51.740Z,11.80
2018-07-10T02:25:18.987Z,11.80
2018-07-10T02:27:46.440Z,11.90
2018-07-10T02:30:14.017Z,11.90
2018-07-10T02:32:41.661Z,11.90
2018-07-10T02:37:36.793Z,12.00
2018-07-10T02:40:04.044Z,12.00
2018-07-10T02:42:32.266Z,12.00
2018-07-10T02:44:59.673Z,12.00
2018-07-10T02:47:27.144Z,12.00
2018-07-10T02:49:54.730Z,12.00
2018-07-10T02:52:22.038Z,11.90
2018-07-10T02:54:49.342Z,11.80
2018-07-10T02:57:16.644Z,11.70
2018-07-10T02:59:45.384Z,11.70
2018-07-10T03:02:20.060Z,11.70
2018-07-10T03:04:47.941Z,11.70
2018-07-10T03:07:16.925Z,11.60
2018-07-10T03:09:45.241Z,11.60
2018-07-10T03:12:12.862Z,11.70
2018-07-10T03:14:41.192Z,11.60
2018-07-10T03:17:08.767Z,11.60
2018-07-10T03:19:36.635Z,11.70
2018-07-10T03:22:04.040Z,11.70
2018-07-10T03:24:31.422Z,11.60
2018-07-10T03:26:58.879Z,11.60
2018-07-10T03:29:26.129Z,11.70
2018-07-10T03:31:53.604Z,11.70
2018-07-10T03:34:21.428Z,11.70
2018-07-10T03:36:48.761Z,11.70
2018-07-10T03:39:16.460Z,11.70
2018-07-10T03:41:43.984Z,11.70
2018-07-10T03:44:11.356Z,11.80
2018-07-10T03:46:39.017Z,11.80
2018-07-10T03:49:06.508Z,11.80
2018-07-10T03:51:33.928Z,11.90
2018-07-10T03:54:02.152Z,11.90
2018-07-10T03:56:29.470Z,11.90
2018-07-10T03:58:58.772Z,12.00
2018-07-10T04:01:31.296Z,12.00
2018-07-10T04:03:58.591Z,12.00
2018-07-10T04:06:25.850Z,12.10
2018-07-10T04:08:53.134Z,12.10
2018-07-10T04:11:20.504Z,12.10
2018-07-10T04:13:47.818Z,12.20
2018-07-10T04:16:15.148Z,12.20
2018-07-10T04:18:42.439Z,12.20
2018-07-10T04:21:25.795Z,12.30
2018-07-10T04:24:00.033Z,12.40
2018-07-10T04:26:27.418Z,12.40
2018-07-10T04:29:04.387Z,12.40
2018-07-10T04:31:43.759Z,12.50
2018-07-10T04:34:11.132Z,12.50
2018-07-10T04:36:38.396Z,12.60
2018-07-10T04:39:05.698Z,12.70
2018-07-10T04:41:35.219Z,12.70
2018-07-10T04:44:06.303Z,12.90
2018-07-10T04:46:36.895Z,12.80
2018-07-10T04:50:13.188Z,12.90
2018-07-10T04:52:44.328Z,12.90
2018-07-10T04:55:12.507Z,13.10
2018-07-10T04:57:49.048Z,13.30
2018-07-10T05:00:16.437Z,13.40
2018-07-10T05:02:43.808Z,13.40
2018-07-10T05:05:11.308Z,13.50
2018-07-10T05:07:38.595Z,13.60
2018-07-10T05:10:05.920Z,13.70
2018-07-10T05:12:33.244Z,13.70
2018-07-10T05:15:00.586Z,13.80
2018-07-10T05:17:27.980Z,13.70
2018-07-10T05:19:56.089Z,13.70
2018-07-10T05:22:24.327Z,13.70
2018-07-10T05:24:52.173Z,13.80
2018-07-10T05:27:19.408Z,13.80
2018-07-10T05:29:46.959Z,13.50
2018-07-10T05:32:14.613Z,13.40
2018-07-10T05:34:41.919Z,13.40
2018-07-10T05:37:11.343Z,13.30
2018-07-10T05:39:42.623Z,13.30
2018-07-10T05:42:09.974Z,13.30
2018-07-10T05:44:37.607Z,13.30
2018-07-10T05:47:05.209Z,13.30
2018-07-10T05:49:36.920Z,13.40
2018-07-10T05:52:04.230Z,13.50
2018-07-10T05:54:31.510Z,13.40
2018-07-10T05:56:59.288Z,13.40
2018-07-10T05:59:26.701Z,13.50
2018-07-10T06:01:57.106Z,13.50
2018-07-10T06:04:24.408Z,13.50
2018-07-10T06:06:51.721Z,13.50
2018-07-10T06:09:18.980Z,13.60
2018-07-10T06:11:46.467Z,13.50
2018-07-10T06:14:13.847Z,13.40
2018-07-10T06:16:42.066Z,13.40
2018-07-10T06:19:09.676Z,13.40
2018-07-10T06:21:42.850Z,13.50
2018-07-10T06:24:15.469Z,13.50
2018-07-10T06:26:43.659Z,13.60
2018-07-10T06:29:20.434Z,13.70
2018-07-10T06:31:54.708Z,13.90
2018-07-10T06:34:34.876Z,14.10
2018-07-10T06:37:11.621Z,14.40
2018-07-10T06:39:39.620Z,14.70
2018-07-10T06:42:11.708Z,14.80
2018-07-10T06:44:39.309Z,15.10
2018-07-10T06:47:14.962Z,15.40
2018-07-10T06:49:42.549Z,15.40
2018-07-10T06:52:17.446Z,15.30
2018-07-10T06:54:52.128Z,15.00
2018-07-10T06:57:24.526Z,15.00
2018-07-10T06:59:52.214Z,14.90
2018-07-10T07:02:19.527Z,15.00
2018-07-10T07:04:46.793Z,14.80
2018-07-10T07:07:14.466Z,14.80
2018-07-10T07:09:41.853Z,14.70
2018-07-10T07:12:09.132Z,14.60
2018-07-10T07:14:36.553Z,14.70
2018-07-10T07:17:03.861Z,14.90
2018-07-10T07:19:31.109Z,15.10
2018-07-10T07:21:58.391Z,15.30
2018-07-10T07:24:25.714Z,15.50
2018-07-10T07:26:52.964Z,15.70
2018-07-10T07:29:20.320Z,16.00
2018-07-10T07:31:47.549Z,16.00
2018-07-10T07:34:14.952Z,16.10
2018-07-10T07:36:42.267Z,16.10
2018-07-10T07:39:09.000Z,16.30
2018-07-10T07:41:35.808Z,16.20
2018-07-10T07:44:02.713Z,16.20
2018-07-10T07:46:29.329Z,16.40
2018-07-10T07:48:56.830Z,16.40
2018-07-10T07:51:24.100Z,16.20
2018-07-10T07:53:51.452Z,16.30
2018-07-10T07:56:18.781Z,16.40
2018-07-10T07:58:46.265Z,16.60
2018-07-10T08:01:13.650Z,16.90
2018-07-10T08:06:08.326Z,17.30
2018-07-10T08:08:35.083Z,17.40
2018-07-10T08:11:02.601Z,17.60
2018-07-10T08:13:30.053Z,17.80
2018-07-10T08:15:57.467Z,18.10
2018-07-10T08:18:24.768Z,18.30
2018-07-10T08:20:52.060Z,18.40
2018-07-10T08:23:19.327Z,18.40
2018-07-10T08:25:46.817Z,18.40
2018-07-10T08:28:14.119Z,18.50
2018-07-10T08:30:41.428Z,18.70
2018-07-10T08:33:09.313Z,18.60
2018-07-10T08:35:36.593Z,18.60
2018-07-10T08:38:03.972Z,18.80
2018-07-10T08:40:31.649Z,19.00
2018-07-10T08:42:59.119Z,18.90
2018-07-10T08:45:26.996Z,18.70
2018-07-10T08:47:54.277Z,18.50
2018-07-10T08:50:21.796Z,18.10
2018-07-10T08:52:49.096Z,18.10
2018-07-10T08:55:16.391Z,17.80
2018-07-10T08:57:43.761Z,17.80
2018-07-10T09:00:11.128Z,17.80
2018-07-10T09:02:38.460Z,18.10
2018-07-10T09:07:33.164Z,18.30
2018-07-10T09:10:00.494Z,18.40
2018-07-10T09:12:27.768Z,18.70
2018-07-10T09:15:01.962Z,18.80
2018-07-10T09:19:59.099Z,18.40
2018-07-10T09:22:25.885Z,18.50
2018-07-10T09:24:53.768Z,18.30
2018-07-10T09:27:22.395Z,18.10
2018-07-10T09:29:49.655Z,17.90
2018-07-10T09:32:23.053Z,17.80
2018-07-10T09:34:50.311Z,17.80
2018-07-10T09:39:55.082Z,17.40
2018-07-10T09:42:22.431Z,17.30
2018-07-10T09:44:49.817Z,17.10
2018-07-10T09:47:17.125Z,17.50
2018-07-10T09:49:44.555Z,17.80
2018-07-10T09:52:11.921Z,18.30
2018-07-10T09:54:39.384Z,18.20
2018-07-10T09:57:06.600Z,18.30
2018-07-10T09:59:33.928Z,18.30
2018-07-10T10:02:07.529Z,18.50
2018-07-10T10:04:34.862Z,18.70
2018-07-10T10:07:02.189Z,18.90
2018-07-10T10:11:56.788Z,18.50
2018-07-10T10:14:24.120Z,18.50
2018-07-10T10:16:51.404Z,18.60
2018-07-10T10:19:18.748Z,18.80
2018-07-10T10:21:46.103Z,19.20
2018-07-10T10:24:13.760Z,19.10
2018-07-10T10:26:41.153Z,19.20
2018-07-10T10:29:08.428Z,19.10
2018-07-10T10:31:35.820Z,19.20
2018-07-10T10:34:03.238Z,19.50
2018-07-10T10:36:30.621Z,19.80
2018-07-10T10:38:58.005Z,20.30
2018-07-10T10:41:25.348Z,20.30
2018-07-10T10:43:52.624Z,20.50
2018-07-10T10:46:21.364Z,20.40
2018-07-10T10:48:48.806Z,19.90
2018-07-10T10:51:16.295Z,19.80
2018-07-10T10:53:43.862Z,20.30
2018-07-10T10:56:11.152Z,20.30
2018-07-10T10:58:38.468Z,20.40
2018-07-10T11:01:05.866Z,20.40
2018-07-10T11:03:33.182Z,20.40
2018-07-10T11:06:00.505Z,21.00
2018-07-10T11:08:27.960Z,21.10
2018-07-10T11:10:55.290Z,21.10
2018-07-10T11:13:22.699Z,21.30
2018-07-10T11:15:50.022Z,21.50
2018-07-10T11:18:24.644Z,21.40
2018-07-10T11:26:04.731Z,23.10
2018-07-10T11:28:32.048Z,23.20
2018-07-10T11:31:00.176Z,22.70
2018-07-10T11:33:27.509Z,22.80
2018-07-10T11:35:54.856Z,23.30
2018-07-10T11:40:49.773Z,23.40
2018-07-10T11:43:17.140Z,24.10
2018-07-10T11:45:44.456Z,25.20
2018-07-10T11:48:11.780Z,26.00
2018-07-10T11:50:39.252Z,26.00
2018-07-10T11:53:06.560Z,26.00
2018-07-10T11:55:34.720Z,26.40
2018-07-10T12:00:30.497Z,27.00
2018-07-10T12:02:57.916Z,27.10
2018-07-10T12:05:25.262Z,26.10
2018-07-10T12:07:56.034Z,26.00
2018-07-10T12:10:28.317Z,26.30
2018-07-10T12:12:55.737Z,26.70
2018-07-10T12:15:23.388Z,26.70
2018-07-10T12:17:53.191Z,26.40
2018-07-10T12:20:24.663Z,26.20
2018-07-10T12:22:52.009Z,25.60
2018-07-10T12:25:19.294Z,25.10
2018-07-10T12:27:47.240Z,24.90
2018-07-10T12:30:14.682Z,23.80
2018-07-10T12:32:41.905Z,23.30
2018-07-10T12:35:09.300Z,22.90
2018-07-10T12:37:39.106Z,22.90
2018-07-10T12:40:06.410Z,22.80
2018-07-10T12:42:34.131Z,23.90
2018-07-10T12:45:01.683Z,26.20
2018-07-10T12:47:29.729Z,26.80
2018-07-10T12:49:57.068Z,26.30
2018-07-10T12:52:24.841Z,28.20
2018-07-10T12:54:53.334Z,29.40
2018-07-10T12:57:20.662Z,29.70
2018-07-10T12:59:47.930Z,29.80
2018-07-10T13:02:15.569Z,28.30
2018-07-10T13:07:10.171Z,29.10
2018-07-10T13:09:37.619Z,30.10
2018-07-10T13:12:06.089Z,29.90
2018-07-10T13:14:33.452Z,29.30
2018-07-10T13:17:00.800Z,27.80
2018-07-10T13:19:28.222Z,27.50
2018-07-10T13:21:56.330Z,27.30
2018-07-10T13:24:23.158Z,26.40
2018-07-10T13:26:50.273Z,25.00
2018-07-10T13:29:17.062Z,25.40
2018-07-10T13:31:44.376Z,25.60
2018-07-10T13:34:11.819Z,26.50
2018-07-10T13:36:39.089Z,26.10
2018-07-10T13:39:06.578Z,25.90
2018-07-10T13:41:33.996Z,26.90
2018-07-10T13:44:01.805Z,26.90
2018-07-10T13:46:29.188Z,26.30
2018-07-10T13:48:56.509Z,26.40
2018-07-10T13:51:23.842Z,27.00
2018-07-10T13:53:51.153Z,27.50
2018-07-10T13:56:18.420Z,26.70
2018-07-10T13:58:45.772Z,27.00
2018-07-10T14:01:13.113Z,26.90
2018-07-10T14:03:40.430Z,27.30
2018-07-10T14:06:07.736Z,27.50
2018-07-10T14:08:35.157Z,27.40
2018-07-10T14:11:02.799Z,27.50
2018-07-10T14:13:30.085Z,27.40
2018-07-10T14:15:57.605Z,26.80
2018-07-10T14:18:24.882Z,26.50
2018-07-10T14:20:55.364Z,26.80
2018-07-10T14:23:22.739Z,27.20
2018-07-10T14:25:50.703Z,26.60
2018-07-10T14:28:18.182Z,26.00
2018-07-10T14:30:45.444Z,26.10
2018-07-10T14:33:12.773Z,26.40
2018-07-10T14:35:39.561Z,25.20
2018-07-10T14:38:07.104Z,24.00
2018-07-10T14:40:37.785Z,23.60
2018-07-10T14:43:05.172Z,23.30
2018-07-10T14:45:32.774Z,22.80
2018-07-10T14:48:01.993Z,22.70
2018-07-10T14:50:29.348Z,22.90
2018-07-10T14:52:56.659Z,22.80
2018-07-10T14:55:24.178Z,23.60
2018-07-10T14:57:51.494Z,23.50
2018-07-10T15:00:18.822Z,23.20
2018-07-10T15:02:46.166Z,23.50
2018-07-10T15:05:13.398Z,22.80
2018-07-10T15:07:40.939Z,22.10
2018-07-10T15:10:08.365Z,21.60
2018-07-10T15:12:35.688Z,21.30
2018-07-10T15:15:03.268Z,20.80
2018-07-10T15:17:36.349Z,20.30
2018-07-10T15:20:05.584Z,20.20
2018-07-10T15:22:33.937Z,20.20
2018-07-10T15:25:01.269Z,20.10
2018-07-10T15:27:28.528Z,20.10
2018-07-10T15:29:55.932Z,20.00
2018-07-10T15:32:23.218Z,20.10
2018-07-10T15:34:50.561Z,19.90
2018-07-10T15:37:18.304Z,20.00
2018-07-10T15:39:45.604Z,20.00
2018-07-10T15:42:12.910Z,20.00
2018-07-10T15:44:40.164Z,20.10
2018-07-10T15:47:07.434Z,20.30
2018-07-10T15:49:34.724Z,20.20
2018-07-10T15:54:30.070Z,20.30
2018-07-10T15:59:24.690Z,20.30
2018-07-10T16:01:51.934Z,20.40
2018-07-10T16:04:19.184Z,20.60
2018-07-10T16:06:46.688Z,20.70
2018-07-10T16:09:22.282Z,20.90
2018-07-10T16:11:55.601Z,21.00
2018-07-10T16:14:22.897Z,21.20
2018-07-10T16:16:50.195Z,21.20
2018-07-10T16:19:26.180Z,21.40
2018-07-10T16:21:58.461Z,21.60
2018-07-10T16:24:25.753Z,21.80
2018-07-10T16:26:53.214Z,21.70
2018-07-10T16:29:21.451Z,22.00
2018-07-10T16:31:50.273Z,22.20
2018-07-10T16:34:17.140Z,22.70
2018-07-10T16:36:43.883Z,23.10
2018-07-10T16:41:44.661Z,24.00
2018-07-10T16:44:11.973Z,23.80
2018-07-10T16:46:40.321Z,23.70
2018-07-10T16:49:16.529Z,23.40
2018-07-10T16:51:53.034Z,23.30
2018-07-10T16:54:20.582Z,23.10
2018-07-10T16:56:47.946Z,22.90
2018-07-10T16:59:15.213Z,23.00
2018-07-10T17:01:42.508Z,23.20
2018-07-10T17:04:09.823Z,23.20
2018-07-10T17:06:37.296Z,23.20
2018-07-10T17:09:04.981Z,23.20
2018-07-10T17:11:32.350Z,23.30
2018-07-10T17:13:59.072Z,23.60
2018-07-10T17:16:26.777Z,25.00
2018-07-10T17:18:54.240Z,25.70
2018-07-10T17:21:21.709Z,26.80
2018-07-10T17:23:49.689Z,27.00
2018-07-10T17:26:16.976Z,27.20
2018-07-10T17:28:44.258Z,26.20
2018-07-10T17:31:11.596Z,25.60
2018-07-10T17:33:38.904Z,25.90
2018-07-10T17:36:06.241Z,25.80
2018-07-10T17:41:00.212Z,25.40
2018-07-10T17:43:26.994Z,25.20
2018-07-10T17:45:53.801Z,25.10
2018-07-10T17:48:20.956Z,24.70
2018-07-10T17:50:48.292Z,24.20
2018-07-10T17:53:15.532Z,23.70
2018-07-10T17:55:42.896Z,23.70
2018-07-10T17:58:10.394Z,23.60
2018-07-10T18:00:37.732Z,23.30
2018-07-10T18:03:05.187Z,23.00
2018-07-10T18:05:32.494Z,22.70
2018-07-10T18:07:59.769Z,22.30
2018-07-10T18:10:26.587Z,22.10
2018-07-10T18:12:53.886Z,21.90
2018-07-10T18:15:21.313Z,22.00
2018-07-10T18:17:49.234Z,21.70
2018-07-10T18:20:16.197Z,21.50
2018-07-10T18:22:42.957Z,21.40
2018-07-10T18:25:10.098Z,21.10
2018-07-10T18:27:36.844Z,20.90
2018-07-10T18:30:04.255Z,20.80
2018-07-10T18:32:31.573Z,20.80
2018-07-10T18:34:58.931Z,20.50
2018-07-10T18:37:26.232Z,20.50
2018-07-10T18:39:53.505Z,20.40
2018-07-10T18:44:48.128Z,20.40
2018-07-10T18:47:15.402Z,20.40
2018-07-10T18:49:44.027Z,20.10
2018-07-10T18:52:11.361Z,19.90
2018-07-10T18:54:39.537Z,19.90
2018-07-10T18:57:16.310Z,20.00
2018-07-10T18:59:48.502Z,20.00
2018-07-10T19:02:54.129Z,20.10
2018-07-10T19:05:21.437Z,20.00
2018-07-10T19:07:50.231Z,19.80
2018-07-10T19:10:17.683Z,19.80
2018-07-10T19:12:45.595Z,19.70
2018-07-10T19:15:13.005Z,19.60
2018-07-10T19:17:40.305Z,19.40
2018-07-10T19:20:08.822Z,19.30
2018-07-10T19:22:45.732Z,19.20
2018-07-10T19:25:13.628Z,19.20
2018-07-10T19:27:43.091Z,19.10
2018-07-10T19:30:10.553Z,19.00
2018-07-10T19:32:38.843Z,18.90
2018-07-10T19:35:07.037Z,18.80
2018-07-10T19:37:36.109Z,18.70
2018-07-10T19:40:03.656Z,18.60
2018-07-10T19:42:32.373Z,18.50
2018-07-10T19:45:00.757Z,18.30
2018-07-10T19:47:29.189Z,18.30
2018-07-10T19:49:57.000Z,18.20
2018-07-10T19:52:24.420Z,18.10
2018-07-10T19:54:52.833Z,18.00
2018-07-10T19:57:38.445Z,17.90
2018-07-10T20:00:07.364Z,17.80
2018-07-10T20:02:34.762Z,17.80
2018-07-10T20:05:05.666Z,17.70
2018-07-10T20:07:38.826Z,17.60
2018-07-10T20:10:13.678Z,17.50
2018-07-10T20:12:50.312Z,17.50
2018-07-10T20:15:28.791Z,17.40
2018-07-10T20:19:12.796Z,17.30
2018-07-10T20:21:48.269Z,17.20
2018-07-10T20:24:18.328Z,17.20
2018-07-10T20:26:53.320Z,17.10
2018-07-10T20:29:32.138Z,17.00
2018-07-10T20:32:01.206Z,17.00
2018-07-10T20:34:54.907Z,17.00
2018-07-10T20:37:25.833Z,16.90
2018-07-10T20:39:53.070Z,16.90
2018-07-10T20:42:20.352Z,16.80
2018-07-10T20:44:51.465Z,16.70
2018-07-10T20:47:19.278Z,16.70
2018-07-10T20:49:50.426Z,16.60
2018-07-10T20:52:24.409Z,16.60
2018-07-10T20:54:56.493Z,16.60
2018-07-10T20:58:05.483Z,16.50
2018-07-10T21:00:39.836Z,16.50
2018-07-10T21:03:13.859Z,16.40
2018-07-10T21:05:46.837Z,16.30
2018-07-10T21:08:24.333Z,16.30
2018-07-10T21:10:56.099Z,16.30
2018-07-10T21:13:35.045Z,16.20
2018-07-10T21:16:13.099Z,16.20
2018-07-10T21:18:49.418Z,16.10
2018-07-10T21:22:25.732Z,16.10
2018-07-10T21:25:04.373Z,16.10
2018-07-10T21:28:44.900Z,16.10
2018-07-10T21:31:22.156Z,16.00
2018-07-10T21:33:54.732Z,16.00
2018-07-10T21:36:31.698Z,16.00
2018-07-10T21:39:06.756Z,15.90
2018-07-10T21:41:49.492Z,15.90
2018-07-10T21:46:35.544Z,15.80
2018-07-10T21:49:10.426Z,15.70
2018-07-10T21:51:38.630Z,15.70
2018-07-10T21:54:05.865Z,15.60
2018-07-10T21:56:33.212Z,15.60
2018-07-10T21:59:01.027Z,15.60
2018-07-10T22:01:43.013Z,15.60
2018-07-10T22:04:12.661Z,15.60
2018-07-10T22:06:40.704Z,15.50
2018-07-10T22:09:08.241Z,15.50
2018-07-10T22:14:03.180Z,15.40
2018-07-10T22:16:30.764Z,15.40
2018-07-10T22:21:25.620Z,15.40
2018-07-10T22:23:52.888Z,15.30
2018-07-10T22:26:20.150Z,15.30
2018-07-10T22:28:47.408Z,15.20
2018-07-10T22:31:20.408Z,15.20
2018-07-10T22:33:47.684Z,15.10
2018-07-10T22:36:14.961Z,15.10
2018-07-10T22:38:42.886Z,15.00
2018-07-10T22:41:10.160Z,15.00
2018-07-10T22:43:37.389Z,14.90
2018-07-10T22:46:05.442Z,14.90
2018-07-10T22:48:32.712Z,14.90
2018-07-10T22:51:00.641Z,14.90
2018-07-10T22:53:28.138Z,14.90
2018-07-10T22:55:55.496Z,14.90
2018-07-10T22:58:22.744Z,14.80
2018-07-10T23:00:50.044Z,14.90
2018-07-10T23:03:21.604Z,14.80
2018-07-10T23:05:49.697Z,14.90
2018-07-10T23:08:18.360Z,14.80
2018-07-10T23:10:46.516Z,14.80
2018-07-10T23:13:14.294Z,14.80
2018-07-10T23:15:42.184Z,14.70
2018-07-10T23:18:09.577Z,14.70
2018-07-10T23:20:36.848Z,14.70
2018-07-10T23:23:04.109Z,14.70
2018-07-10T23:25:31.390Z,14.70
2018-07-10T23:28:01.930Z,14.70
2018-07-10T23:30:32.808Z,14.60
2018-07-10T23:33:00.113Z,14.60
2018-07-10T23:35:29.168Z,14.60
2018-07-10T23:37:59.929Z,14.60
2018-07-10T23:40:27.272Z,14.50
2018-07-10T23:42:54.954Z,14.50
2018-07-10T23:45:25.508Z,14.50
2018-07-10T23:50:23.981Z,14.40
2018-07-10T23:53:26.254Z,14.40
2018-07-10T23:55:53.480Z,14.40
